createdAt,value
2019-02-07T00:00:27.962Z,26.43
2019-02-07T00:02:57.489Z,25.37
2019-02-07T00:05:25.259Z,26.33
2019-02-07T00:07:53.828Z,27.03
2019-02-07T00:10:21.296Z,26.13
2019-02-07T00:12:49.543Z,27.80
2019-02-07T00:15:16.671Z,26.40
2019-02-07T00:17:44.094Z,26.80
2019-02-07T00:20:11.363Z,25.93
2019-02-07T00:22:39.338Z,28.13
2019-02-07T00:25:07.747Z,27.70
2019-02-07T00:27:34.819Z,26.93
2019-02-07T00:30:01.983Z,27.00
2019-02-07T00:32:29.650Z,26.37
2019-02-07T00:34:56.717Z,26.00
2019-02-07T00:37:23.766Z,26.47
2019-02-07T00:39:51.582Z,26.47
2019-02-07T00:42:19.046Z,26.83
2019-02-07T00:44:52.067Z,27.90
2019-02-07T00:47:15.942Z,25.73
2019-02-07T00:49:43.687Z,27.03
2019-02-07T00:52:11.756Z,26.67
2019-02-07T00:54:39.094Z,27.40
2019-02-07T00:57:06.445Z,28.17
2019-02-07T00:59:33.531Z,29.77
2019-02-07T01:02:00.616Z,26.43
2019-02-07T01:04:27.668Z,27.10
2019-02-07T01:06:55.046Z,27.77
2019-02-07T01:09:22.215Z,28.37
2019-02-07T01:11:49.379Z,27.30
2019-02-07T01:14:16.958Z,26.63
2019-02-07T01:16:44.263Z,25.80
2019-02-07T01:19:11.715Z,25.80
2019-02-07T01:21:39.479Z,27.93
2019-02-07T01:24:06.946Z,28.23
2019-02-07T01:26:34.321Z,29.37
2019-02-07T01:29:01.393Z,27.70
2019-02-07T01:31:28.500Z,29.50
2019-02-07T01:33:55.571Z,28.47
2019-02-07T01:36:22.639Z,27.03
2019-02-07T01:38:50.860Z,28.13
2019-02-07T01:41:18.316Z,28.07
2019-02-07T01:43:45.615Z,28.47
2019-02-07T01:46:14.459Z,27.47
2019-02-07T01:48:41.627Z,26.67
2019-02-07T01:51:08.708Z,26.90
2019-02-07T01:53:35.763Z,27.83
2019-02-07T01:56:03.042Z,26.57
2019-02-07T01:58:30.514Z,25.27
2019-02-07T02:00:57.865Z,26.53
2019-02-07T02:03:24.912Z,25.83
2019-02-07T02:05:52.572Z,25.27
2019-02-07T02:08:20.543Z,24.73
2019-02-07T02:10:47.690Z,23.37
2019-02-07T02:13:14.891Z,24.43
2019-02-07T02:15:42.540Z,23.03
2019-02-07T02:18:09.611Z,21.10
2019-02-07T02:20:37.911Z,21.80
2019-02-07T02:23:04.966Z,21.03
2019-02-07T02:25:32.211Z,20.83
2019-02-07T02:28:00.413Z,22.87
2019-02-07T02:30:30.143Z,20.60
2019-02-07T02:32:57.476Z,20.80
2019-02-07T02:35:27.554Z,20.43
2019-02-07T02:37:54.595Z,20.13
2019-02-07T02:40:22.195Z,19.60
2019-02-07T02:42:49.866Z,19.70
2019-02-07T02:45:17.720Z,23.00
2019-02-07T02:47:45.076Z,20.40
2019-02-07T02:50:15.351Z,20.50
2019-02-07T02:52:42.755Z,21.77
2019-02-07T02:55:11.038Z,23.00
2019-02-07T02:57:38.829Z,24.23
2019-02-07T03:00:14.074Z,23.90
2019-02-07T03:03:00.844Z,23.20
2019-02-07T03:05:57.071Z,24.50
2019-02-07T03:08:46.852Z,25.40
2019-02-07T03:11:32.219Z,26.77
2019-02-07T03:14:15.473Z,26.47
2019-02-07T03:17:05.239Z,26.03
2019-02-07T03:19:48.873Z,28.60
2019-02-07T03:22:41.554Z,29.90
2019-02-07T03:25:27.267Z,31.20
2019-02-07T03:28:12.795Z,29.93
2019-02-07T03:30:52.647Z,31.90
2019-02-07T03:33:32.553Z,30.80
2019-02-07T03:36:19.288Z,33.10
2019-02-07T03:39:05.489Z,31.70
2019-02-07T03:42:03.258Z,33.30
2019-02-07T03:44:50.274Z,32.43
2019-02-07T03:47:44.681Z,31.83
2019-02-07T03:50:40.684Z,31.40
2019-02-07T03:53:32.108Z,31.00
2019-02-07T03:56:18.817Z,27.80
2019-02-07T03:58:57.821Z,28.17
2019-02-07T04:01:45.914Z,26.30
2019-02-07T04:04:47.748Z,26.93
2019-02-07T04:07:36.019Z,25.33
2019-02-07T04:10:26.996Z,24.47
2019-02-07T04:13:15.607Z,26.47
2019-02-07T04:16:20.462Z,26.20
2019-02-07T04:19:01.329Z,26.73
2019-02-07T04:21:48.221Z,25.30
2019-02-07T04:24:37.657Z,25.90
2019-02-07T04:27:27.354Z,26.30
2019-02-07T04:30:12.822Z,24.60
2019-02-07T04:33:01.134Z,24.37
2019-02-07T04:35:41.830Z,24.30
2019-02-07T04:38:38.453Z,24.43
2019-02-07T04:41:19.811Z,22.50
2019-02-07T04:44:07.057Z,24.57
2019-02-07T04:46:52.437Z,24.70
2019-02-07T04:49:38.897Z,24.97
2019-02-07T04:52:27.589Z,25.13
2019-02-07T04:55:14.964Z,25.80
2019-02-07T04:57:55.378Z,25.73
2019-02-07T05:00:45.366Z,27.00
2019-02-07T05:03:32.236Z,28.73
2019-02-07T05:06:25.163Z,26.80
2019-02-07T05:09:24.112Z,26.00
2019-02-07T05:12:17.186Z,28.33
2019-02-07T05:15:05.230Z,27.50
2019-02-07T05:17:45.458Z,31.80
2019-02-07T05:20:39.421Z,31.73
2019-02-07T05:23:38.560Z,31.43
2019-02-07T05:26:24.048Z,37.93
2019-02-07T05:29:09.511Z,33.20
2019-02-07T05:31:52.812Z,32.63
2019-02-07T05:34:51.920Z,35.23
2019-02-07T05:37:44.799Z,32.70
2019-02-07T05:40:20.323Z,31.47
2019-02-07T05:43:06.751Z,33.17
2019-02-07T05:45:46.968Z,35.60
2019-02-07T05:48:33.420Z,30.23
2019-02-07T05:51:16.631Z,35.20
2019-02-07T05:54:06.567Z,33.70
2019-02-07T05:56:52.422Z,35.00
2019-02-07T05:59:36.609Z,32.97
2019-02-07T06:02:22.098Z,34.03
2019-02-07T06:05:00.910Z,35.00
2019-02-07T06:07:46.060Z,32.50
2019-02-07T06:10:41.570Z,33.30
2019-02-07T06:13:44.930Z,32.43
2019-02-07T06:16:30.619Z,36.30
2019-02-07T06:19:10.514Z,34.90
2019-02-07T06:22:09.168Z,34.05
2019-02-07T06:25:06.210Z,36.60
2019-02-07T06:27:55.547Z,34.80
2019-02-07T06:30:58.435Z,38.30
2019-02-07T06:33:50.839Z,34.30
2019-02-07T06:36:41.993Z,34.70
2019-02-07T06:39:22.595Z,36.00
2019-02-07T06:42:08.237Z,36.83
2019-02-07T06:44:53.777Z,36.70
2019-02-07T06:47:34.063Z,34.40
2019-02-07T06:50:19.244Z,35.17
2019-02-07T06:52:58.672Z,32.70
2019-02-07T06:55:39.983Z,33.50
2019-02-07T06:58:29.666Z,32.80
2019-02-07T07:01:17.068Z,34.43
2019-02-07T07:04:02.062Z,37.30
2019-02-07T07:06:48.750Z,33.90
2019-02-07T07:09:34.966Z,35.20
2019-02-07T07:12:14.198Z,34.20
2019-02-07T07:14:52.714Z,30.43
2019-02-07T07:17:39.527Z,34.20
2019-02-07T07:20:27.769Z,31.27
2019-02-07T07:23:24.199Z,31.77
2019-02-07T07:26:11.903Z,30.07
2019-02-07T07:28:49.117Z,31.60
2019-02-07T07:31:34.281Z,31.97
2019-02-07T07:34:24.374Z,29.82
2019-02-07T07:37:10.423Z,28.93
2019-02-07T07:39:57.657Z,29.53
2019-02-07T07:42:54.273Z,29.73
2019-02-07T07:45:59.488Z,29.93
2019-02-07T07:49:01.147Z,28.25
2019-02-07T07:51:53.855Z,27.37
2019-02-07T07:54:39.936Z,28.87
2019-02-07T07:57:46.327Z,26.87
2019-02-07T08:00:39.277Z,26.42
2019-02-07T08:03:38.284Z,27.75
2019-02-07T08:06:19.875Z,26.17
2019-02-07T08:09:16.880Z,27.65
2019-02-07T08:11:59.437Z,24.15
2019-02-07T08:14:46.151Z,23.95
2019-02-07T08:17:30.903Z,24.50
2019-02-07T08:20:22.380Z,22.65
2019-02-07T08:22:58.674Z,23.73
2019-02-07T08:25:58.867Z,27.07
2019-02-07T08:28:45.503Z,23.83
2019-02-07T08:31:24.460Z,25.35
2019-02-07T08:34:17.722Z,24.02
2019-02-07T08:37:00.154Z,23.17
2019-02-07T08:39:50.015Z,23.50
2019-02-07T08:42:39.754Z,22.77
2019-02-07T08:45:40.215Z,22.55
2019-02-07T08:48:30.255Z,25.05
2019-02-07T08:51:13.999Z,23.90
2019-02-07T08:54:03.522Z,20.33
2019-02-07T08:56:49.052Z,22.37
2019-02-07T08:59:41.548Z,22.10
2019-02-07T09:02:27.422Z,24.40
2019-02-07T09:05:27.206Z,21.87
2019-02-07T09:08:35.130Z,25.17
2019-02-07T09:11:40.180Z,25.20
2019-02-07T09:14:40.112Z,21.60
2019-02-07T09:17:44.677Z,20.30
2019-02-07T09:20:37.529Z,19.80
2019-02-07T09:23:34.540Z,19.60
2019-02-07T09:26:20.138Z,20.10
2019-02-07T09:29:13.063Z,18.90
2019-02-07T09:31:58.580Z,20.30
2019-02-07T09:34:49.475Z,20.50
2019-02-07T09:37:54.319Z,22.73
2019-02-07T09:40:40.035Z,19.15
2019-02-07T09:43:29.906Z,20.72
2019-02-07T09:46:23.641Z,21.80
2019-02-07T09:49:10.331Z,19.27
2019-02-07T09:52:00.429Z,19.07
2019-02-07T09:54:45.661Z,19.33
2019-02-07T09:57:35.694Z,24.05
2019-02-07T10:00:12.120Z,21.37
2019-02-07T10:03:05.260Z,20.17
2019-02-07T10:05:50.951Z,19.57
2019-02-07T10:08:55.515Z,19.90
2019-02-07T10:11:40.854Z,20.90
2019-02-07T10:14:36.874Z,20.23
2019-02-07T10:17:27.952Z,19.30
2019-02-07T10:20:13.551Z,19.77
2019-02-07T10:23:01.310Z,20.90
2019-02-07T10:25:51.988Z,21.10
2019-02-07T10:28:39.713Z,20.57
2019-02-07T10:31:16.959Z,17.70
2019-02-07T10:34:02.921Z,19.27
2019-02-07T10:36:48.694Z,20.20
2019-02-07T10:39:34.383Z,19.97
2019-02-07T10:42:21.248Z,20.23
2019-02-07T10:45:07.213Z,20.47
2019-02-07T10:47:52.303Z,19.50
2019-02-07T10:50:39.597Z,21.13
2019-02-07T10:53:21.007Z,20.27
2019-02-07T10:56:06.561Z,19.80
2019-02-07T10:58:52.253Z,18.80
2019-02-07T11:01:41.927Z,19.73
2019-02-07T11:04:37.737Z,20.90
2019-02-07T11:07:40.817Z,21.20
2019-02-07T11:10:33.075Z,19.60
2019-02-07T11:13:38.571Z,18.03
2019-02-07T11:16:26.313Z,16.70
2019-02-07T11:19:21.304Z,18.00
2019-02-07T11:21:54.737Z,18.57
2019-02-07T11:24:41.911Z,21.03
2019-02-07T11:27:27.420Z,19.40
2019-02-07T11:30:33.596Z,19.70
2019-02-07T11:33:19.701Z,18.33
2019-02-07T11:36:09.932Z,18.63
2019-02-07T11:38:59.579Z,20.87
2019-02-07T11:41:41.777Z,21.40
2019-02-07T11:44:27.405Z,20.77
2019-02-07T11:47:10.402Z,20.80
2019-02-07T11:49:49.191Z,19.30
2019-02-07T11:52:41.239Z,19.60
2019-02-07T11:55:16.206Z,20.30
2019-02-07T11:58:03.875Z,21.20
2019-02-07T12:01:01.312Z,22.65
2019-02-07T12:03:51.251Z,20.03
2019-02-07T12:06:32.666Z,19.30
2019-02-07T12:09:32.400Z,20.20
2019-02-07T12:12:28.205Z,18.90
2019-02-07T12:15:24.449Z,20.93
2019-02-07T12:18:11.965Z,23.00
2019-02-07T12:21:02.458Z,19.70
2019-02-07T12:23:52.543Z,20.30
2019-02-07T12:26:32.212Z,22.07
2019-02-07T12:29:22.072Z,21.33
2019-02-07T12:32:12.468Z,20.93
2019-02-07T12:34:52.519Z,20.57
2019-02-07T12:37:40.775Z,19.90
2019-02-07T12:40:26.337Z,20.80
2019-02-07T12:43:27.841Z,18.87
2019-02-07T12:46:16.556Z,20.13
2019-02-07T12:49:02.447Z,19.13
2019-02-07T12:52:02.072Z,20.77
2019-02-07T12:54:44.875Z,18.83
2019-02-07T12:57:34.878Z,17.67
2019-02-07T13:00:21.871Z,18.93
2019-02-07T13:03:21.636Z,17.77
2019-02-07T13:06:17.174Z,17.83
2019-02-07T13:08:51.633Z,19.17
2019-02-07T13:11:37.967Z,19.10
2019-02-07T13:14:37.124Z,17.63
2019-02-07T13:17:22.997Z,17.03
2019-02-07T13:20:00.469Z,16.27
2019-02-07T13:22:44.409Z,16.80
2019-02-07T13:25:25.227Z,17.47
2019-02-07T13:28:07.014Z,16.70
2019-02-07T13:30:53.823Z,15.13
2019-02-07T13:33:43.403Z,14.43
2019-02-07T13:36:31.328Z,14.20
2019-02-07T13:39:32.851Z,13.13
2019-02-07T13:42:35.079Z,15.33
2019-02-07T13:45:22.091Z,13.43
2019-02-07T13:48:18.778Z,12.53
2019-02-07T13:51:04.616Z,13.60
2019-02-07T13:53:51.295Z,12.17
2019-02-07T13:56:38.009Z,13.13
2019-02-07T13:59:28.361Z,12.97
2019-02-07T14:02:15.798Z,14.67
2019-02-07T14:05:05.722Z,14.47
2019-02-07T14:08:01.206Z,12.23
2019-02-07T14:11:00.465Z,12.50
2019-02-07T14:13:53.103Z,12.37
2019-02-07T14:16:39.059Z,10.17
2019-02-07T14:19:25.476Z,10.27
2019-02-07T14:22:30.907Z,9.90
2019-02-07T14:25:20.088Z,7.73
2019-02-07T14:28:11.376Z,8.00
2019-02-07T14:31:08.218Z,7.60
2019-02-07T14:33:54.445Z,5.80
2019-02-07T14:36:45.621Z,6.37
2019-02-07T14:39:33.084Z,6.80
2019-02-07T14:42:08.322Z,7.53
2019-02-07T14:45:07.346Z,6.67
2019-02-07T14:47:34.410Z,6.90
2019-02-07T14:50:01.511Z,8.10
2019-02-07T14:52:28.607Z,7.60
2019-02-07T14:54:57.522Z,6.60
2019-02-07T14:57:26.442Z,7.73
2019-02-07T14:59:53.685Z,6.03
2019-02-07T15:02:24.185Z,5.73
2019-02-07T15:04:51.267Z,6.50
2019-02-07T15:07:18.574Z,5.27
2019-02-07T15:09:46.030Z,5.07
2019-02-07T15:12:14.676Z,5.90
2019-02-07T15:14:42.998Z,4.83
2019-02-07T15:17:10.888Z,4.80
2019-02-07T15:19:38.087Z,5.10
2019-02-07T15:22:06.162Z,3.80
2019-02-07T15:24:33.520Z,4.20
2019-02-07T15:27:00.660Z,4.40
2019-02-07T15:29:27.866Z,5.83
2019-02-07T15:31:54.977Z,4.37
2019-02-07T15:34:22.081Z,3.60
2019-02-07T15:36:51.072Z,4.17
2019-02-07T15:39:19.761Z,3.83
2019-02-07T15:41:48.056Z,4.17
2019-02-07T15:44:15.166Z,4.33
2019-02-07T15:46:42.353Z,3.77
2019-02-07T15:49:11.039Z,4.87
2019-02-07T15:51:38.356Z,4.93
2019-02-07T15:54:06.573Z,4.67
2019-02-07T15:56:34.830Z,5.00
2019-02-07T15:59:19.900Z,4.27
2019-02-07T16:01:59.029Z,3.63
2019-02-07T16:04:32.807Z,5.00
2019-02-07T16:07:00.197Z,4.40
2019-02-07T16:09:27.854Z,4.00
2019-02-07T16:11:55.359Z,4.73
2019-02-07T16:14:22.766Z,5.20
2019-02-07T16:16:49.875Z,4.97
2019-02-07T16:19:25.075Z,4.27
2019-02-07T16:21:52.513Z,5.00
2019-02-07T16:24:19.678Z,4.87
2019-02-07T16:26:47.219Z,5.07
2019-02-07T16:29:14.680Z,6.53
2019-02-07T16:31:43.982Z,5.43
2019-02-07T16:34:12.080Z,6.60
2019-02-07T16:36:39.992Z,5.10
2019-02-07T16:39:07.420Z,4.53
2019-02-07T16:41:35.614Z,3.87
2019-02-07T16:44:02.707Z,5.13
2019-02-07T16:46:29.890Z,6.00
2019-02-07T16:48:57.299Z,5.77
2019-02-07T16:51:27.116Z,4.50
2019-02-07T16:53:54.671Z,4.83
2019-02-07T16:56:22.129Z,4.80
2019-02-07T16:58:50.707Z,6.57
2019-02-07T17:01:18.783Z,5.70
2019-02-07T17:03:49.771Z,4.40
2019-02-07T17:06:18.512Z,4.23
2019-02-07T17:08:45.622Z,4.93
2019-02-07T17:11:14.816Z,4.30
2019-02-07T17:13:41.922Z,6.27
2019-02-07T17:16:09.198Z,5.40
